sensor_id;sensor_type;location;lat;lon;timestamp;P1;durP1;ratioP1;P2;durP2;ratioP2
51296;SDS011;37380;45.186;9.792;2024-02-14T00:00:09;53.85;;;43.90;;
51296;SDS011;37380;45.186;9.792;2024-02-14T00:02:43;47.90;;;40.95;;
51296;SDS011;37380;45.186;9.792;2024-02-14T00:05:10;47.28;;;38.85;;
51296;SDS011;37380;45.186;9.792;2024-02-14T00:07:38;48.67;;;39.40;;
51296;SDS011;37380;45.186;9.792;2024-02-14T00:10:06;42.25;;;34.55;;
51296;SDS011;37380;45.186;9.792;2024-02-14T00:12:41;41.45;;;34.47;;
51296;SDS011;37380;45.186;9.792;2024-02-14T00:15:09;49.17;;;37.95;;
51296;SDS011;37380;45.186;9.792;2024-02-14T00:17:36;39.72;;;34.95;;
51296;SDS011;37380;45.186;9.792;2024-02-14T00:20:03;43.92;;;35.75;;
51296;SDS011;37380;45.186;9.792;2024-02-14T00:22:44;45.00;;;36.05;;
51296;SDS011;37380;45.186;9.792;2024-02-14T00:25:11;40.60;;;34.70;;
51296;SDS011;37380;45.186;9.792;2024-02-14T00:27:38;39.45;;;32.85;;
51296;SDS011;37380;45.186;9.792;2024-02-14T00:30:06;49.83;;;32.30;;
51296;SDS011;37380;45.186;9.792;2024-02-14T00:32:53;44.80;;;34.75;;
51296;SDS011;37380;45.186;9.792;2024-02-14T00:35:21;36.42;;;31.48;;
51296;SDS011;37380;45.186;9.792;2024-02-14T00:37:49;44.63;;;34.33;;
51296;SDS011;37380;45.186;9.792;2024-02-14T00:40:16;42.67;;;33.53;;
51296;SDS011;37380;45.186;9.792;2024-02-14T00:42:44;37.05;;;29.65;;
51296;SDS011;37380;45.186;9.792;2024-02-14T00:45:11;34.05;;;30.40;;
51296;SDS011;37380;45.186;9.792;2024-02-14T00:47:38;35.85;;;30.65;;
51296;SDS011;37380;45.186;9.792;2024-02-14T00:50:06;34.17;;;29.40;;
51296;SDS011;37380;45.186;9.792;2024-02-14T00:52:33;39.47;;;31.35;;
51296;SDS011;37380;45.186;9.792;2024-02-14T00:55:04;33.42;;;28.38;;
51296;SDS011;37380;45.186;9.792;2024-02-14T00:57:32;30.20;;;26.90;;
51296;SDS011;37380;45.186;9.792;2024-02-14T00:59:59;37.25;;;27.10;;
51296;SDS011;37380;45.186;9.792;2024-02-14T01:02:30;30.50;;;26.80;;
51296;SDS011;37380;45.186;9.792;2024-02-14T01:04:57;29.70;;;25.83;;
51296;SDS011;37380;45.186;9.792;2024-02-14T01:07:24;42.35;;;27.30;;
51296;SDS011;37380;45.186;9.792;2024-02-14T01:09:51;28.40;;;25.50;;
51296;SDS011;37380;45.186;9.792;2024-02-14T01:12:18;36.05;;;27.17;;
51296;SDS011;37380;45.186;9.792;2024-02-14T01:14:45;35.35;;;28.38;;
51296;SDS011;37380;45.186;9.792;2024-02-14T01:17:12;30.42;;;24.52;;
51296;SDS011;37380;45.186;9.792;2024-02-14T01:19:39;30.13;;;26.15;;
51296;SDS011;37380;45.186;9.792;2024-02-14T01:22:07;29.75;;;26.65;;
51296;SDS011;37380;45.186;9.792;2024-02-14T01:24:36;33.38;;;27.17;;
51296;SDS011;37380;45.186;9.792;2024-02-14T01:27:03;34.95;;;30.55;;
51296;SDS011;37380;45.186;9.792;2024-02-14T01:29:31;36.22;;;31.60;;
51296;SDS011;37380;45.186;9.792;2024-02-14T01:31:58;31.10;;;27.83;;
51296;SDS011;37380;45.186;9.792;2024-02-14T01:34:25;34.47;;;27.60;;
51296;SDS011;37380;45.186;9.792;2024-02-14T01:36:52;36.10;;;28.13;;
51296;SDS011;37380;45.186;9.792;2024-02-14T01:39:20;35.20;;;29.33;;
51296;SDS011;37380;45.186;9.792;2024-02-14T01:41:48;34.63;;;29.77;;
51296;SDS011;37380;45.186;9.792;2024-02-14T01:44:16;36.35;;;30.90;;
51296;SDS011;37380;45.186;9.792;2024-02-14T01:46:43;35.95;;;29.70;;
51296;SDS011;37380;45.186;9.792;2024-02-14T01:49:11;36.65;;;29.35;;
51296;SDS011;37380;45.186;9.792;2024-02-14T01:51:39;35.35;;;30.88;;
51296;SDS011;37380;45.186;9.792;2024-02-14T01:54:11;35.38;;;27.88;;
51296;SDS011;37380;45.186;9.792;2024-02-14T01:56:39;38.55;;;32.35;;
51296;SDS011;37380;45.186;9.792;2024-02-14T01:59:06;36.28;;;31.25;;
51296;SDS011;37380;45.186;9.792;2024-02-14T02:01:35;36.63;;;31.55;;
51296;SDS011;37380;45.186;9.792;2024-02-14T02:04:02;34.13;;;30.60;;
51296;SDS011;37380;45.186;9.792;2024-02-14T02:06:30;38.47;;;32.13;;
51296;SDS011;37380;45.186;9.792;2024-02-14T02:08:57;35.45;;;29.23;;
51296;SDS011;37380;45.186;9.792;2024-02-14T02:11:25;33.75;;;27.05;;
51296;SDS011;37380;45.186;9.792;2024-02-14T02:14:13;45.70;;;35.72;;
51296;SDS011;37380;45.186;9.792;2024-02-14T02:17:01;44.10;;;36.45;;
51296;SDS011;37380;45.186;9.792;2024-02-14T02:19:54;48.08;;;35.80;;
51296;SDS011;37380;45.186;9.792;2024-02-14T02:22:33;48.42;;;36.30;;
51296;SDS011;37380;45.186;9.792;2024-02-14T02:25:22;45.50;;;34.10;;
51296;SDS011;37380;45.186;9.792;2024-02-14T02:28:09;45.13;;;36.08;;
51296;SDS011;37380;45.186;9.792;2024-02-14T02:30:39;40.40;;;34.97;;
51296;SDS011;37380;45.186;9.792;2024-02-14T02:33:06;40.28;;;30.85;;
51296;SDS011;37380;45.186;9.792;2024-02-14T02:35:34;41.28;;;35.00;;
51296;SDS011;37380;45.186;9.792;2024-02-14T02:38:11;40.67;;;33.90;;
51296;SDS011;37380;45.186;9.792;2024-02-14T02:40:58;42.70;;;34.03;;
51296;SDS011;37380;45.186;9.792;2024-02-14T02:43:47;37.55;;;31.20;;
51296;SDS011;37380;45.186;9.792;2024-02-14T02:46:48;40.97;;;34.78;;
51296;SDS011;37380;45.186;9.792;2024-02-14T02:49:35;38.72;;;32.03;;
51296;SDS011;37380;45.186;9.792;2024-02-14T02:52:23;35.53;;;30.05;;
51296;SDS011;37380;45.186;9.792;2024-02-14T02:55:10;39.75;;;31.15;;
51296;SDS011;37380;45.186;9.792;2024-02-14T02:57:45;33.70;;;28.17;;
51296;SDS011;37380;45.186;9.792;2024-02-14T03:00:12;36.63;;;31.23;;
51296;SDS011;37380;45.186;9.792;2024-02-14T03:02:47;35.38;;;30.00;;
51296;SDS011;37380;45.186;9.792;2024-02-14T03:05:34;41.97;;;35.15;;
51296;SDS011;37380;45.186;9.792;2024-02-14T03:08:15;36.47;;;32.33;;
51296;SDS011;37380;45.186;9.792;2024-02-14T03:11:06;50.90;;;35.75;;
51296;SDS011;37380;45.186;9.792;2024-02-14T03:13:53;41.15;;;36.22;;
51296;SDS011;37380;45.186;9.792;2024-02-14T03:16:40;45.47;;;34.38;;
51296;SDS011;37380;45.186;9.792;2024-02-14T03:19:07;45.88;;;35.35;;
51296;SDS011;37380;45.186;9.792;2024-02-14T03:21:34;41.85;;;31.73;;
51296;SDS011;37380;45.186;9.792;2024-02-14T03:24:02;44.55;;;33.88;;
51296;SDS011;37380;45.186;9.792;2024-02-14T03:26:31;39.10;;;31.98;;
51296;SDS011;37380;45.186;9.792;2024-02-14T03:29:00;40.40;;;29.95;;
51296;SDS011;37380;45.186;9.792;2024-02-14T03:31:28;38.78;;;29.65;;
51296;SDS011;37380;45.186;9.792;2024-02-14T03:33:55;38.58;;;29.85;;
51296;SDS011;37380;45.186;9.792;2024-02-14T03:36:22;33.45;;;27.13;;
51296;SDS011;37380;45.186;9.792;2024-02-14T03:38:50;40.03;;;33.47;;
51296;SDS011;37380;45.186;9.792;2024-02-14T03:41:17;36.92;;;30.98;;
51296;SDS011;37380;45.186;9.792;2024-02-14T03:43:45;49.65;;;30.33;;
51296;SDS011;37380;45.186;9.792;2024-02-14T03:46:12;40.25;;;32.15;;
51296;SDS011;37380;45.186;9.792;2024-02-14T03:48:40;33.42;;;29.15;;
51296;SDS011;37380;45.186;9.792;2024-02-14T03:51:08;35.72;;;30.35;;
51296;SDS011;37380;45.186;9.792;2024-02-14T03:53:35;34.47;;;30.85;;
51296;SDS011;37380;45.186;9.792;2024-02-14T03:56:04;32.35;;;28.60;;
51296;SDS011;37380;45.186;9.792;2024-02-14T03:58:33;31.75;;;28.08;;
51296;SDS011;37380;45.186;9.792;2024-02-14T04:01:03;33.72;;;27.13;;
51296;SDS011;37380;45.186;9.792;2024-02-14T04:03:31;39.72;;;29.58;;
51296;SDS011;37380;45.186;9.792;2024-02-14T04:05:58;34.33;;;29.20;;
51296;SDS011;37380;45.186;9.792;2024-02-14T04:08:25;38.00;;;29.67;;
51296;SDS011;37380;45.186;9.792;2024-02-14T04:10:52;34.75;;;30.02;;
51296;SDS011;37380;45.186;9.792;2024-02-14T04:13:21;34.78;;;29.60;;
51296;SDS011;37380;45.186;9.792;2024-02-14T04:15:49;37.22;;;29.85;;
51296;SDS011;37380;45.186;9.792;2024-02-14T04:18:19;32.33;;;28.05;;
51296;SDS011;37380;45.186;9.792;2024-02-14T04:20:46;34.15;;;26.98;;
51296;SDS011;37380;45.186;9.792;2024-02-14T04:23:14;31.70;;;28.27;;
51296;SDS011;37380;45.186;9.792;2024-02-14T04:25:41;33.58;;;27.90;;
51296;SDS011;37380;45.186;9.792;2024-02-14T04:28:08;30.55;;;27.33;;
51296;SDS011;37380;45.186;9.792;2024-02-14T04:30:36;40.13;;;29.48;;
51296;SDS011;37380;45.186;9.792;2024-02-14T04:33:13;35.03;;;30.85;;
51296;SDS011;37380;45.186;9.792;2024-02-14T04:35:41;33.30;;;28.60;;
51296;SDS011;37380;45.186;9.792;2024-02-14T04:38:07;36.85;;;28.95;;
51296;SDS011;37380;45.186;9.792;2024-02-14T04:40:35;31.70;;;28.05;;
51296;SDS011;37380;45.186;9.792;2024-02-14T04:43:04;29.77;;;26.63;;
51296;SDS011;37380;45.186;9.792;2024-02-14T04:45:31;56.67;;;25.50;;
51296;SDS011;37380;45.186;9.792;2024-02-14T04:48:01;62.60;;;29.52;;
51296;SDS011;37380;45.186;9.792;2024-02-14T04:50:30;37.40;;;30.02;;
51296;SDS011;37380;45.186;9.792;2024-02-14T04:52:58;30.63;;;27.30;;
51296;SDS011;37380;45.186;9.792;2024-02-14T04:55:25;34.67;;;27.80;;
51296;SDS011;37380;45.186;9.792;2024-02-14T04:57:52;46.33;;;28.08;;
51296;SDS011;37380;45.186;9.792;2024-02-14T05:00:18;39.50;;;27.98;;
51296;SDS011;37380;45.186;9.792;2024-02-14T05:02:46;31.35;;;28.17;;
51296;SDS011;37380;45.186;9.792;2024-02-14T05:05:13;29.52;;;26.35;;
51296;SDS011;37380;45.186;9.792;2024-02-14T05:07:52;28.70;;;25.63;;
51296;SDS011;37380;45.186;9.792;2024-02-14T05:10:20;32.70;;;27.35;;
51296;SDS011;37380;45.186;9.792;2024-02-14T05:12:47;28.73;;;25.88;;
51296;SDS011;37380;45.186;9.792;2024-02-14T05:15:14;27.83;;;25.10;;
51296;SDS011;37380;45.186;9.792;2024-02-14T05:17:42;25.05;;;22.60;;
51296;SDS011;37380;45.186;9.792;2024-02-14T05:20:13;28.55;;;25.67;;
51296;SDS011;37380;45.186;9.792;2024-02-14T05:22:40;27.20;;;24.40;;
51296;SDS011;37380;45.186;9.792;2024-02-14T05:25:07;28.70;;;25.73;;
51296;SDS011;37380;45.186;9.792;2024-02-14T05:27:49;60.53;;;31.60;;
51296;SDS011;37380;45.186;9.792;2024-02-14T05:30:17;35.45;;;29.40;;
51296;SDS011;37380;45.186;9.792;2024-02-14T05:32:49;33.33;;;27.40;;
51296;SDS011;37380;45.186;9.792;2024-02-14T05:35:19;32.88;;;28.08;;
51296;SDS011;37380;45.186;9.792;2024-02-14T05:37:46;28.55;;;25.63;;
51296;SDS011;37380;45.186;9.792;2024-02-14T05:40:16;28.60;;;25.38;;
51296;SDS011;37380;45.186;9.792;2024-02-14T05:42:43;36.33;;;24.65;;
51296;SDS011;37380;45.186;9.792;2024-02-14T05:45:13;87.72;;;26.20;;
51296;SDS011;37380;45.186;9.792;2024-02-14T05:47:40;111.50;;;25.70;;
51296;SDS011;37380;45.186;9.792;2024-02-14T05:50:07;158.00;;;29.33;;
51296;SDS011;37380;45.186;9.792;2024-02-14T05:52:35;55.58;;;26.38;;
51296;SDS011;37380;45.186;9.792;2024-02-14T05:55:03;103.10;;;28.75;;
51296;SDS011;37380;45.186;9.792;2024-02-14T05:57:33;91.53;;;28.90;;
51296;SDS011;37380;45.186;9.792;2024-02-14T06:00:00;55.78;;;28.38;;
51296;SDS011;37380;45.186;9.792;2024-02-14T06:02:37;70.47;;;28.90;;
51296;SDS011;37380;45.186;9.792;2024-02-14T06:05:04;69.28;;;28.25;;
51296;SDS011;37380;45.186;9.792;2024-02-14T06:07:32;29.40;;;26.50;;
51296;SDS011;37380;45.186;9.792;2024-02-14T06:09:59;29.90;;;26.70;;
51296;SDS011;37380;45.186;9.792;2024-02-14T06:12:26;29.10;;;25.60;;
51296;SDS011;37380;45.186;9.792;2024-02-14T06:14:53;28.38;;;25.55;;
51296;SDS011;37380;45.186;9.792;2024-02-14T06:17:20;29.48;;;26.55;;
51296;SDS011;37380;45.186;9.792;2024-02-14T06:19:47;29.67;;;26.65;;
51296;SDS011;37380;45.186;9.792;2024-02-14T06:22:14;29.73;;;26.58;;
51296;SDS011;37380;45.186;9.792;2024-02-14T06:24:42;29.95;;;25.45;;
51296;SDS011;37380;45.186;9.792;2024-02-14T06:27:09;27.63;;;24.92;;
51296;SDS011;37380;45.186;9.792;2024-02-14T06:29:36;26.75;;;23.88;;
51296;SDS011;37380;45.186;9.792;2024-02-14T06:32:03;29.17;;;24.02;;
51296;SDS011;37380;45.186;9.792;2024-02-14T06:34:31;29.17;;;25.83;;
51296;SDS011;37380;45.186;9.792;2024-02-14T06:36:58;32.60;;;25.20;;
51296;SDS011;37380;45.186;9.792;2024-02-14T06:39:25;32.60;;;28.58;;
51296;SDS011;37380;45.186;9.792;2024-02-14T06:41:52;52.92;;;31.80;;
51296;SDS011;37380;45.186;9.792;2024-02-14T06:44:19;159.35;;;36.55;;
51296;SDS011;37380;45.186;9.792;2024-02-14T06:46:46;76.35;;;35.35;;
51296;SDS011;37380;45.186;9.792;2024-02-14T06:49:15;69.18;;;35.17;;
51296;SDS011;37380;45.186;9.792;2024-02-14T06:51:42;52.28;;;33.25;;
51296;SDS011;37380;45.186;9.792;2024-02-14T06:54:10;59.92;;;33.97;;
51296;SDS011;37380;45.186;9.792;2024-02-14T06:56:37;36.65;;;31.02;;
51296;SDS011;37380;45.186;9.792;2024-02-14T06:59:04;39.00;;;30.52;;
51296;SDS011;37380;45.186;9.792;2024-02-14T07:01:31;53.28;;;30.60;;
51296;SDS011;37380;45.186;9.792;2024-02-14T07:03:58;64.72;;;30.65;;
51296;SDS011;37380;45.186;9.792;2024-02-14T07:06:25;66.45;;;30.88;;
51296;SDS011;37380;45.186;9.792;2024-02-14T07:08:53;45.30;;;27.10;;
51296;SDS011;37380;45.186;9.792;2024-02-14T07:11:20;57.15;;;28.20;;
51296;SDS011;37380;45.186;9.792;2024-02-14T07:13:47;50.42;;;27.02;;
51296;SDS011;37380;45.186;9.792;2024-02-14T07:16:14;32.20;;;25.13;;
51296;SDS011;37380;45.186;9.792;2024-02-14T07:18:41;33.72;;;25.00;;
51296;SDS011;37380;45.186;9.792;2024-02-14T07:21:08;46.50;;;25.75;;
51296;SDS011;37380;45.186;9.792;2024-02-14T07:23:36;42.13;;;26.27;;
51296;SDS011;37380;45.186;9.792;2024-02-14T07:26:03;25.80;;;23.02;;
51296;SDS011;37380;45.186;9.792;2024-02-14T07:28:30;27.13;;;22.65;;
51296;SDS011;37380;45.186;9.792;2024-02-14T07:30:59;62.78;;;25.65;;
51296;SDS011;37380;45.186;9.792;2024-02-14T07:33:26;25.92;;;23.45;;
51296;SDS011;37380;45.186;9.792;2024-02-14T07:35:53;52.33;;;25.30;;
51296;SDS011;37380;45.186;9.792;2024-02-14T07:38:20;33.80;;;24.58;;
51296;SDS011;37380;45.186;9.792;2024-02-14T07:40:49;27.13;;;24.25;;
51296;SDS011;37380;45.186;9.792;2024-02-14T07:43:21;70.53;;;29.17;;
51296;SDS011;37380;45.186;9.792;2024-02-14T07:45:47;31.33;;;26.48;;
51296;SDS011;37380;45.186;9.792;2024-02-14T07:48:15;30.83;;;27.83;;
51296;SDS011;37380;45.186;9.792;2024-02-14T07:50:43;33.47;;;30.13;;
51296;SDS011;37380;45.186;9.792;2024-02-14T07:53:10;31.20;;;28.13;;
51296;SDS011;37380;45.186;9.792;2024-02-14T07:55:37;29.58;;;26.67;;
51296;SDS011;37380;45.186;9.792;2024-02-14T07:58:05;32.20;;;28.95;;
51296;SDS011;37380;45.186;9.792;2024-02-14T08:00:32;30.45;;;27.40;;
51296;SDS011;37380;45.186;9.792;2024-02-14T08:02:59;32.03;;;28.83;;
51296;SDS011;37380;45.186;9.792;2024-02-14T08:05:30;31.27;;;28.00;;
51296;SDS011;37380;45.186;9.792;2024-02-14T08:07:57;32.08;;;28.63;;
51296;SDS011;37380;45.186;9.792;2024-02-14T08:10:24;37.83;;;29.65;;
51296;SDS011;37380;45.186;9.792;2024-02-14T08:12:51;38.05;;;27.77;;
51296;SDS011;37380;45.186;9.792;2024-02-14T08:15:18;29.45;;;26.42;;
51296;SDS011;37380;45.186;9.792;2024-02-14T08:17:47;30.52;;;26.40;;
51296;SDS011;37380;45.186;9.792;2024-02-14T08:20:15;29.92;;;26.77;;
51296;SDS011;37380;45.186;9.792;2024-02-14T08:22:54;30.80;;;25.00;;
51296;SDS011;37380;45.186;9.792;2024-02-14T08:25:21;29.13;;;24.25;;
51296;SDS011;37380;45.186;9.792;2024-02-14T08:27:49;27.98;;;23.52;;
51296;SDS011;37380;45.186;9.792;2024-02-14T08:30:18;26.10;;;23.30;;
51296;SDS011;37380;45.186;9.792;2024-02-14T08:32:46;24.25;;;21.75;;
51296;SDS011;37380;45.186;9.792;2024-02-14T08:35:14;24.92;;;22.38;;
51296;SDS011;37380;45.186;9.792;2024-02-14T08:37:42;25.27;;;20.23;;
51296;SDS011;37380;45.186;9.792;2024-02-14T08:40:09;21.85;;;19.65;;
51296;SDS011;37380;45.186;9.792;2024-02-14T08:42:39;21.20;;;17.90;;
51296;SDS011;37380;45.186;9.792;2024-02-14T08:45:06;22.85;;;16.10;;
51296;SDS011;37380;45.186;9.792;2024-02-14T08:47:33;25.45;;;13.75;;
51296;SDS011;37380;45.186;9.792;2024-02-14T08:50:00;14.65;;;13.18;;
51296;SDS011;37380;45.186;9.792;2024-02-14T08:52:29;18.13;;;13.52;;
51296;SDS011;37380;45.186;9.792;2024-02-14T08:54:57;21.58;;;13.98;;
51296;SDS011;37380;45.186;9.792;2024-02-14T08:57:23;20.95;;;13.57;;
51296;SDS011;37380;45.186;9.792;2024-02-14T08:59:50;14.82;;;11.48;;
51296;SDS011;37380;45.186;9.792;2024-02-14T09:02:17;15.00;;;13.23;;
51296;SDS011;37380;45.186;9.792;2024-02-14T09:04:44;15.25;;;10.27;;
51296;SDS011;37380;45.186;9.792;2024-02-14T09:07:12;23.08;;;12.50;;
51296;SDS011;37380;45.186;9.792;2024-02-14T09:09:40;15.02;;;11.70;;
51296;SDS011;37380;45.186;9.792;2024-02-14T09:12:07;13.70;;;11.15;;
51296;SDS011;37380;45.186;9.792;2024-02-14T09:14:35;15.32;;;13.70;;
51296;SDS011;37380;45.186;9.792;2024-02-14T09:17:02;13.02;;;11.55;;
51296;SDS011;37380;45.186;9.792;2024-02-14T09:19:30;21.90;;;13.23;;
51296;SDS011;37380;45.186;9.792;2024-02-14T09:21:57;16.35;;;12.25;;
51296;SDS011;37380;45.186;9.792;2024-02-14T09:24:24;15.02;;;12.52;;
51296;SDS011;37380;45.186;9.792;2024-02-14T09:26:52;15.88;;;13.40;;
51296;SDS011;37380;45.186;9.792;2024-02-14T09:29:19;13.73;;;12.38;;
51296;SDS011;37380;45.186;9.792;2024-02-14T09:31:46;17.58;;;15.02;;
51296;SDS011;37380;45.186;9.792;2024-02-14T09:34:15;14.02;;;12.35;;
51296;SDS011;37380;45.186;9.792;2024-02-14T09:36:45;14.43;;;12.48;;
51296;SDS011;37380;45.186;9.792;2024-02-14T09:39:16;15.50;;;13.70;;
51296;SDS011;37380;45.186;9.792;2024-02-14T09:41:46;24.30;;;13.27;;
51296;SDS011;37380;45.186;9.792;2024-02-14T09:44:21;14.15;;;12.80;;
51296;SDS011;37380;45.186;9.792;2024-02-14T09:46:48;15.68;;;12.15;;
51296;SDS011;37380;45.186;9.792;2024-02-14T09:49:16;21.40;;;14.70;;
51296;SDS011;37380;45.186;9.792;2024-02-14T09:51:44;13.82;;;12.43;;
51296;SDS011;37380;45.186;9.792;2024-02-14T09:54:13;19.30;;;13.45;;
51296;SDS011;37380;45.186;9.792;2024-02-14T09:56:48;20.77;;;13.63;;
51296;SDS011;37380;45.186;9.792;2024-02-14T09:59:20;25.65;;;13.98;;
51296;SDS011;37380;45.186;9.792;2024-02-14T10:01:49;20.10;;;14.45;;
51296;SDS011;37380;45.186;9.792;2024-02-14T10:04:19;22.38;;;14.43;;
51296;SDS011;37380;45.186;9.792;2024-02-14T10:06:52;24.05;;;14.75;;
51296;SDS011;37380;45.186;9.792;2024-02-14T10:09:22;14.82;;;13.30;;
51296;SDS011;37380;45.186;9.792;2024-02-14T10:11:49;23.15;;;15.35;;
51296;SDS011;37380;45.186;9.792;2024-02-14T10:14:16;20.33;;;14.50;;
51296;SDS011;37380;45.186;9.792;2024-02-14T10:16:43;18.65;;;13.20;;
51296;SDS011;37380;45.186;9.792;2024-02-14T10:19:16;15.50;;;13.63;;
51296;SDS011;37380;45.186;9.792;2024-02-14T10:21:54;23.83;;;14.57;;
51296;SDS011;37380;45.186;9.792;2024-02-14T10:24:32;19.75;;;14.38;;
51296;SDS011;37380;45.186;9.792;2024-02-14T10:26:59;23.58;;;14.25;;
51296;SDS011;37380;45.186;9.792;2024-02-14T10:29:29;20.63;;;14.02;;
51296;SDS011;37380;45.186;9.792;2024-02-14T10:31:57;17.48;;;13.10;;
51296;SDS011;37380;45.186;9.792;2024-02-14T10:34:25;17.10;;;15.30;;
51296;SDS011;37380;45.186;9.792;2024-02-14T10:36:56;20.50;;;15.18;;
51296;SDS011;37380;45.186;9.792;2024-02-14T10:39:25;19.95;;;16.10;;
51296;SDS011;37380;45.186;9.792;2024-02-14T10:41:53;31.33;;;16.55;;
51296;SDS011;37380;45.186;9.792;2024-02-14T10:44:21;16.67;;;13.52;;
51296;SDS011;37380;45.186;9.792;2024-02-14T10:46:48;17.00;;;15.27;;
51296;SDS011;37380;45.186;9.792;2024-02-14T10:49:19;26.15;;;13.40;;
51296;SDS011;37380;45.186;9.792;2024-02-14T10:51:48;26.70;;;15.77;;
51296;SDS011;37380;45.186;9.792;2024-02-14T10:54:17;17.25;;;15.30;;
51296;SDS011;37380;45.186;9.792;2024-02-14T10:56:48;17.15;;;15.10;;
51296;SDS011;37380;45.186;9.792;2024-02-14T10:59:19;22.17;;;16.13;;
51296;SDS011;37380;45.186;9.792;2024-02-14T11:01:48;21.13;;;16.33;;
51296;SDS011;37380;45.186;9.792;2024-02-14T11:04:16;21.15;;;17.60;;
51296;SDS011;37380;45.186;9.792;2024-02-14T11:06:47;22.58;;;18.25;;
51296;SDS011;37380;45.186;9.792;2024-02-14T11:09:15;23.63;;;18.27;;
51296;SDS011;37380;45.186;9.792;2024-02-14T11:11:43;22.85;;;16.80;;
51296;SDS011;37380;45.186;9.792;2024-02-14T11:14:15;27.13;;;16.13;;
51296;SDS011;37380;45.186;9.792;2024-02-14T11:16:44;21.08;;;16.45;;
51296;SDS011;37380;45.186;9.792;2024-02-14T11:19:13;18.10;;;16.17;;
51296;SDS011;37380;45.186;9.792;2024-02-14T11:21:44;19.35;;;16.13;;
51296;SDS011;37380;45.186;9.792;2024-02-14T11:24:15;19.23;;;16.35;;
51296;SDS011;37380;45.186;9.792;2024-02-14T11:29:15;23.17;;;16.77;;
51296;SDS011;37380;45.186;9.792;2024-02-14T11:31:57;26.42;;;18.92;;
51296;SDS011;37380;45.186;9.792;2024-02-14T11:34:26;23.27;;;17.35;;
51296;SDS011;37380;45.186;9.792;2024-02-14T11:36:54;20.17;;;16.98;;
51296;SDS011;37380;45.186;9.792;2024-02-14T11:39:23;21.95;;;17.88;;
51296;SDS011;37380;45.186;9.792;2024-02-14T11:41:49;26.25;;;17.95;;
51296;SDS011;37380;45.186;9.792;2024-02-14T11:44:18;26.45;;;16.67;;
51296;SDS011;37380;45.186;9.792;2024-02-14T11:46:48;30.23;;;18.05;;
51296;SDS011;37380;45.186;9.792;2024-02-14T11:49:15;24.98;;;16.42;;
51296;SDS011;37380;45.186;9.792;2024-02-14T11:51:45;22.80;;;17.45;;
51296;SDS011;37380;45.186;9.792;2024-02-14T11:54:12;21.13;;;16.35;;
51296;SDS011;37380;45.186;9.792;2024-02-14T11:56:39;20.92;;;15.70;;
51296;SDS011;37380;45.186;9.792;2024-02-14T11:59:07;19.30;;;15.20;;
51296;SDS011;37380;45.186;9.792;2024-02-14T12:01:37;19.23;;;15.65;;
51296;SDS011;37380;45.186;9.792;2024-02-14T12:04:06;23.52;;;16.77;;
51296;SDS011;37380;45.186;9.792;2024-02-14T12:06:36;24.17;;;19.45;;
51296;SDS011;37380;45.186;9.792;2024-02-14T12:09:05;27.60;;;19.10;;
51296;SDS011;37380;45.186;9.792;2024-02-14T12:11:35;28.25;;;20.17;;
51296;SDS011;37380;45.186;9.792;2024-02-14T12:14:06;28.25;;;21.67;;
51296;SDS011;37380;45.186;9.792;2024-02-14T12:16:38;28.35;;;21.27;;
51296;SDS011;37380;45.186;9.792;2024-02-14T12:19:08;39.67;;;20.15;;
51296;SDS011;37380;45.186;9.792;2024-02-14T12:21:38;23.50;;;20.05;;
51296;SDS011;37380;45.186;9.792;2024-02-14T12:24:09;25.90;;;19.63;;
51296;SDS011;37380;45.186;9.792;2024-02-14T12:26:37;25.13;;;18.40;;
51296;SDS011;37380;45.186;9.792;2024-02-14T12:29:05;26.40;;;19.17;;
51296;SDS011;37380;45.186;9.792;2024-02-14T12:31:34;23.50;;;17.95;;
51296;SDS011;37380;45.186;9.792;2024-02-14T12:34:02;23.10;;;17.85;;
51296;SDS011;37380;45.186;9.792;2024-02-14T12:36:32;23.52;;;18.55;;
51296;SDS011;37380;45.186;9.792;2024-02-14T12:39:01;27.38;;;19.55;;
51296;SDS011;37380;45.186;9.792;2024-02-14T12:41:30;28.55;;;17.17;;
51296;SDS011;37380;45.186;9.792;2024-02-14T12:44:02;22.20;;;16.98;;
51296;SDS011;37380;45.186;9.792;2024-02-14T12:46:29;28.40;;;19.38;;
51296;SDS011;37380;45.186;9.792;2024-02-14T12:48:56;26.33;;;19.33;;
51296;SDS011;37380;45.186;9.792;2024-02-14T12:51:24;24.45;;;18.42;;
51296;SDS011;37380;45.186;9.792;2024-02-14T12:53:55;25.75;;;18.17;;
51296;SDS011;37380;45.186;9.792;2024-02-14T12:56:23;22.33;;;17.48;;
51296;SDS011;37380;45.186;9.792;2024-02-14T12:58:50;24.83;;;19.20;;
51296;SDS011;37380;45.186;9.792;2024-02-14T13:01:17;28.33;;;18.60;;
51296;SDS011;37380;45.186;9.792;2024-02-14T13:03:45;27.48;;;18.20;;
51296;SDS011;37380;45.186;9.792;2024-02-14T13:06:12;26.17;;;17.75;;
51296;SDS011;37380;45.186;9.792;2024-02-14T13:08:42;29.15;;;18.98;;
51296;SDS011;37380;45.186;9.792;2024-02-14T13:11:09;20.35;;;17.85;;
51296;SDS011;37380;45.186;9.792;2024-02-14T13:13:37;18.73;;;16.67;;
51296;SDS011;37380;45.186;9.792;2024-02-14T13:16:05;20.63;;;15.82;;
51296;SDS011;37380;45.186;9.792;2024-02-14T13:18:33;22.75;;;17.90;;
51296;SDS011;37380;45.186;9.792;2024-02-14T13:21:02;27.08;;;17.40;;
51296;SDS011;37380;45.186;9.792;2024-02-14T13:23:29;18.58;;;16.38;;
51296;SDS011;37380;45.186;9.792;2024-02-14T13:25:57;18.20;;;16.15;;
51296;SDS011;37380;45.186;9.792;2024-02-14T13:28:24;26.75;;;16.85;;
51296;SDS011;37380;45.186;9.792;2024-02-14T13:30:51;27.02;;;19.55;;
51296;SDS011;37380;45.186;9.792;2024-02-14T13:33:22;20.52;;;17.05;;
51296;SDS011;37380;45.186;9.792;2024-02-14T13:35:50;31.23;;;16.92;;
51296;SDS011;37380;45.186;9.792;2024-02-14T13:38:17;25.27;;;16.98;;
51296;SDS011;37380;45.186;9.792;2024-02-14T13:40:45;23.20;;;17.98;;
51296;SDS011;37380;45.186;9.792;2024-02-14T13:43:12;24.00;;;16.85;;
51296;SDS011;37380;45.186;9.792;2024-02-14T13:45:43;24.58;;;17.73;;
51296;SDS011;37380;45.186;9.792;2024-02-14T13:48:11;21.13;;;17.83;;
51296;SDS011;37380;45.186;9.792;2024-02-14T13:50:39;20.10;;;17.50;;
51296;SDS011;37380;45.186;9.792;2024-02-14T13:53:06;21.70;;;17.85;;
51296;SDS011;37380;45.186;9.792;2024-02-14T13:55:33;26.40;;;18.20;;
51296;SDS011;37380;45.186;9.792;2024-02-14T13:58:01;26.50;;;17.25;;
51296;SDS011;37380;45.186;9.792;2024-02-14T14:00:28;20.10;;;15.18;;
51296;SDS011;37380;45.186;9.792;2024-02-14T14:02:55;23.02;;;15.73;;
51296;SDS011;37380;45.186;9.792;2024-02-14T14:05:23;27.23;;;17.23;;
51296;SDS011;37380;45.186;9.792;2024-02-14T14:07:50;31.02;;;16.50;;
51296;SDS011;37380;45.186;9.792;2024-02-14T14:10:27;22.92;;;15.30;;
51296;SDS011;37380;45.186;9.792;2024-02-14T14:12:55;25.75;;;15.32;;
51296;SDS011;37380;45.186;9.792;2024-02-14T14:15:23;18.83;;;15.35;;
51296;SDS011;37380;45.186;9.792;2024-02-14T14:17:51;24.85;;;16.48;;
51296;SDS011;37380;45.186;9.792;2024-02-14T14:20:18;25.05;;;16.60;;
51296;SDS011;37380;45.186;9.792;2024-02-14T14:22:47;24.75;;;16.88;;
51296;SDS011;37380;45.186;9.792;2024-02-14T14:25:14;31.75;;;17.15;;
51296;SDS011;37380;45.186;9.792;2024-02-14T14:27:42;24.15;;;15.90;;
51296;SDS011;37380;45.186;9.792;2024-02-14T14:33:09;25.20;;;16.52;;
51296;SDS011;37380;45.186;9.792;2024-02-14T14:35:39;25.90;;;17.73;;
51296;SDS011;37380;45.186;9.792;2024-02-14T14:38:06;29.83;;;18.05;;